Time;durP1;ratioP1;P1;durP2;ratioP2;P2;SDS_P1;SDS_P2;PMS_P1;PMS_P2;Temp;Humidity;BMP_temperature;BMP_pressure;BME280_temperature;BME280_humidity;BME280_pressure;Samples;Min_cycle;Max_cycle;Signal;HPM_P1;HPM_P2
2023/11/23 00:01:24;;;;;;;11.90;6.80;;;;;;;2.71;43.82;100765.54;108091;1253;59958;-66
2023/11/23 00:03:52;;;;;;;11.20;6.90;;;;;;;2.70;43.74;100755.65;108062;1253;73034;-67
2023/11/23 00:06:19;;;;;;;9.80;6.50;;;;;;;2.58;43.54;100747.95;108102;1258;68844;-67
2023/11/23 00:08:48;;;;;;;11.00;7.30;;;;;;;2.62;43.68;100747.46;108021;1254;72650;-67
2023/11/23 00:11:16;;;;;;;10.10;6.70;;;;;;;2.58;43.60;100756.96;108037;1253;60797;-66
2023/11/23 00:13:43;;;;;;;11.50;7.10;;;;;;;2.62;43.25;100757.86;108024;1253;59886;-67
2023/11/23 00:16:12;;;;;;;11.30;6.90;;;;;;;2.64;43.14;100769.14;108033;1253;73051;-67
2023/11/23 00:18:39;;;;;;;10.90;6.60;;;;;;;2.57;43.22;100766.14;108001;1254;68063;-67
2023/11/23 00:21:07;;;;;;;9.40;5.60;;;;;;;2.53;43.31;100765.60;107991;1253;71351;-66
2023/11/23 00:23:34;;;;;;;11.00;6.40;;;;;;;2.57;43.23;100769.09;108044;1256;63183;-67
2023/11/23 00:26:05;;;;;;;10.80;6.60;;;;;;;2.60;43.12;100767.91;108031;1258;60553;-67
2023/11/23 00:28:34;;;;;;;10.50;6.60;;;;;;;2.58;43.08;100765.98;108022;1255;71919;-67
2023/11/23 00:31:02;;;;;;;10.10;6.70;;;;;;;2.60;42.96;100762.52;108012;1258;69236;-67
2023/11/23 00:33:30;;;;;;;10.10;6.30;;;;;;;2.66;43.16;100762.21;107772;1256;72640;-67
2023/11/23 00:35:58;;;;;;;13.60;6.70;;;;;;;2.64;43.09;100767.93;108018;1253;60604;-67
2023/11/23 00:38:26;;;;;;;8.60;6.20;;;;;;;2.45;43.22;100764.34;108104;1259;60347;-66
2023/11/23 00:40:53;;;;;;;13.10;6.50;;;;;;;2.36;43.51;100760.13;108118;1255;73769;-67
2023/11/23 00:43:21;;;;;;;10.00;6.50;;;;;;;2.39;43.64;100755.64;108028;1254;70350;-67
2023/11/23 00:45:48;;;;;;;6.80;5.60;;;;;;;2.41;43.43;100746.81;108057;1259;72686;-66
2023/11/23 00:48:16;;;;;;;11.90;6.70;;;;;;;2.40;43.55;100743.34;108076;1254;61102;-67
2023/11/23 00:50:44;;;;;;;10.10;6.20;;;;;;;2.43;43.47;100748.55;108228;1257;60482;-67
2023/11/23 00:53:11;;;;;;;11.90;6.30;;;;;;;2.53;43.32;100744.11;108087;1254;72373;-67
2023/11/23 00:55:39;;;;;;;12.60;7.00;;;;;;;2.46;43.31;100747.02;108072;1254;68930;-67
2023/11/23 00:58:06;;;;;;;10.80;6.90;;;;;;;2.41;43.43;100738.84;108019;1255;72705;-66
2023/11/23 01:00:34;;;;;;;11.30;5.70;;;;;;;2.42;43.30;100737.80;107996;1254;62887;-67
2023/11/23 01:03:01;;;;;;;11.70;5.90;;;;;;;2.30;42.70;100738.25;108054;1253;60219;-67
2023/11/23 01:05:29;;;;;;;10.70;6.00;;;;;;;2.16;42.17;100736.95;108008;1253;72441;-67
2023/11/23 01:07:57;;;;;;;10.40;6.00;;;;;;;2.05;41.72;100728.55;108131;1254;68723;-67
2023/11/23 01:10:24;;;;;;;12.10;6.90;;;;;;;1.87;41.14;100724.27;108112;1254;73529;-67
2023/11/23 01:12:54;;;;;;;10.90;6.60;;;;;;;1.97;41.38;100721.73;108064;1254;61868;-66
2023/11/23 01:15:22;;;;;;;8.00;5.20;;;;;;;1.92;41.38;100727.59;108045;1253;60319;-67
2023/11/23 01:17:50;;;;;;;8.00;4.60;;;;;;;1.82;41.28;100718.16;108102;1253;72971;-67
2023/11/23 01:20:19;;;;;;;12.30;5.80;;;;;;;1.71;41.45;100714.61;108048;1254;68739;-67
2023/11/23 01:22:46;;;;;;;10.00;5.00;;;;;;;1.77;40.79;100711.88;108087;1254;71365;-67
2023/11/23 01:25:13;;;;;;;9.20;5.40;;;;;;;1.71;40.83;100700.41;108181;1254;61768;-67
2023/11/23 01:27:41;;;;;;;7.40;5.20;;;;;;;1.70;40.92;100696.07;108293;1254;60385;-68
2023/11/23 01:30:09;;;;;;;8.40;5.30;;;;;;;1.63;40.94;100691.86;108072;1252;73825;-67
2023/11/23 01:32:37;;;;;;;8.00;5.00;;;;;;;1.53;40.88;100688.14;108179;1254;69149;-67
2023/11/23 01:35:06;;;;;;;7.60;5.10;;;;;;;1.58;40.77;100680.91;108055;1257;71169;-68
2023/11/23 01:37:35;;;;;;;8.40;4.70;;;;;;;1.57;40.62;100671.73;108166;1254;61626;-67
2023/11/23 01:40:04;;;;;;;7.00;5.00;;;;;;;1.62;40.32;100675.77;108160;1257;60293;-67
2023/11/23 01:42:31;;;;;;;8.60;4.70;;;;;;;1.48;40.48;100676.15;108132;1257;73874;-67
2023/11/23 01:44:59;;;;;;;9.20;5.20;;;;;;;1.44;40.75;100684.08;108162;1254;70129;-67
2023/11/23 01:47:26;;;;;;;8.40;5.50;;;;;;;1.33;41.00;100688.65;108006;1255;72676;-67
2023/11/23 01:49:54;;;;;;;7.70;4.70;;;;;;;1.31;41.01;100690.70;108004;1253;60480;-67
2023/11/23 01:52:21;;;;;;;7.70;5.10;;;;;;;1.16;40.97;100682.94;108021;1259;60380;-68
2023/11/23 01:54:50;;;;;;;8.60;5.20;;;;;;;1.14;41.16;100677.22;108100;1254;73834;-67
2023/11/23 01:57:18;;;;;;;7.40;4.80;;;;;;;1.12;41.08;100675.13;108078;1254;70111;-67
2023/11/23 01:59:46;;;;;;;6.70;4.60;;;;;;;1.10;41.39;100676.83;108016;1257;72804;-67
2023/11/23 02:02:13;;;;;;;8.50;4.90;;;;;;;1.07;41.22;100669.20;108057;1254;61746;-67
2023/11/23 02:04:41;;;;;;;10.10;5.30;;;;;;;0.99;41.74;100675.67;107963;1260;60563;-67
2023/11/23 02:07:09;;;;;;;10.20;5.20;;;;;;;1.00;41.61;100671.38;108080;1254;72369;-67
2023/11/23 02:09:36;;;;;;;8.50;5.40;;;;;;;0.95;41.68;100671.66;108147;1254;69973;-68
2023/11/23 02:12:06;;;;;;;8.20;5.30;;;;;;;0.85;41.71;100672.59;107918;1254;71021;-68
2023/11/23 02:14:35;;;;;;;7.80;5.30;;;;;;;0.88;41.38;100667.27;108158;1254;60480;-65
2023/11/23 02:17:16;;;;;;;9.20;5.80;;;;;;;0.87;41.43;100666.04;108143;1254;60262;-66
2023/11/23 02:19:47;;;;;;;11.30;5.90;;;;;;;0.74;41.57;100664.52;108222;1254;72537;-63
2023/11/23 02:22:15;;;;;;;8.00;5.70;;;;;;;0.63;41.50;100660.58;108055;1253;69957;-67
2023/11/23 02:24:43;;;;;;;11.40;5.60;;;;;;;0.45;41.76;100660.71;108060;1254;74955;-67
2023/11/23 02:27:11;;;;;;;8.90;5.60;;;;;;;0.49;41.89;100656.09;108028;1252;60470;-67
2023/11/23 02:29:38;;;;;;;9.10;6.40;;;;;;;0.59;41.93;100654.31;108073;1253;59186;-67
2023/11/23 02:32:07;;;;;;;8.70;6.00;;;;;;;0.54;41.87;100657.88;108164;1256;72786;-66
2023/11/23 02:34:34;;;;;;;11.30;5.60;;;;;;;0.54;41.99;100649.24;108230;1255;70037;-66
2023/11/23 02:37:02;;;;;;;10.50;6.40;;;;;;;0.67;41.60;100645.94;108165;1255;72715;-68
2023/11/23 02:39:30;;;;;;;8.70;5.70;;;;;;;0.67;41.49;100650.61;108213;1257;60510;-68
2023/11/23 02:41:58;;;;;;;9.40;6.10;;;;;;;0.69;41.55;100644.23;107966;1254;60326;-68
2023/11/23 02:44:25;;;;;;;10.70;6.20;;;;;;;0.70;41.51;100642.17;108075;1252;73781;-67
2023/11/23 02:46:53;;;;;;;11.70;5.90;;;;;;;0.65;41.88;100649.72;108105;1260;68923;-68
2023/11/23 02:49:20;;;;;;;11.50;6.50;;;;;;;0.74;41.61;100642.73;108226;1254;72692;-68
2023/11/23 02:51:48;;;;;;;9.80;6.00;;;;;;;0.75;41.35;100637.04;108073;1254;60467;-67
2023/11/23 02:54:15;;;;;;;12.00;5.80;;;;;;;0.69;41.47;100641.46;108150;1254;58832;-68
2023/11/23 02:56:43;;;;;;;9.50;5.70;;;;;;;0.68;41.95;100644.39;107997;1254;72664;-68
2023/11/23 02:59:10;;;;;;;11.30;6.80;;;;;;;0.69;41.71;100636.63;108163;1254;70008;-68
2023/11/23 03:01:39;;;;;;;12.70;6.10;;;;;;;0.72;41.73;100637.35;108149;1251;71409;-68
2023/11/23 03:04:06;;;;;;;10.90;6.10;;;;;;;0.72;41.47;100632.52;108094;1257;60417;-68
2023/11/23 03:06:34;;;;;;;9.70;6.00;;;;;;;0.66;41.51;100638.50;108180;1257;60619;-66
2023/11/23 03:09:01;;;;;;;10.20;5.80;;;;;;;0.53;41.83;100637.15;108084;1251;73133;-67
2023/11/23 03:11:29;;;;;;;10.20;6.10;;;;;;;0.52;41.78;100636.62;108160;1251;70105;-68
2023/11/23 03:13:57;;;;;;;10.80;5.90;;;;;;;0.55;41.85;100630.59;108258;1257;71399;-66
2023/11/23 03:16:24;;;;;;;11.10;6.90;;;;;;;0.62;41.94;100619.09;108113;1255;60445;-67
2023/11/23 03:18:52;;;;;;;12.20;6.30;;;;;;;0.74;41.71;100615.59;108322;1251;60316;-66
2023/11/23 03:21:19;;;;;;;11.70;6.50;;;;;;;0.75;41.53;100613.70;108240;1251;72614;-67
2023/11/23 03:23:47;;;;;;;10.20;5.70;;;;;;;0.73;41.64;100612.48;108159;1251;68865;-67
2023/11/23 03:26:15;;;;;;;10.80;6.00;;;;;;;0.69;42.17;100609.84;108260;1251;71447;-67
2023/11/23 03:28:43;;;;;;;11.30;6.30;;;;;;;0.71;41.99;100605.54;108194;1251;60352;-66
2023/11/23 03:31:10;;;;;;;10.30;6.30;;;;;;;0.78;41.78;100601.11;108065;1251;60396;-67
2023/11/23 03:33:38;;;;;;;9.70;6.20;;;;;;;0.80;41.90;100593.89;108131;1251;73745;-67
2023/11/23 03:36:06;;;;;;;11.90;6.90;;;;;;;0.80;41.92;100591.11;108160;1251;68923;-66
2023/11/23 03:38:34;;;;;;;9.70;6.50;;;;;;;0.78;41.80;100585.57;108147;1251;70365;-67
2023/11/23 03:41:01;;;;;;;14.20;7.00;;;;;;;0.75;41.70;100573.78;108231;1251;60552;-67
2023/11/23 03:43:29;;;;;;;13.00;7.20;;;;;;;0.86;41.68;100563.52;108136;1251;60300;-67
2023/11/23 03:45:56;;;;;;;16.40;8.30;;;;;;;0.96;41.56;100549.27;108071;1257;73720;-68
2023/11/23 03:48:24;;;;;;;20.10;9.20;;;;;;;1.01;41.72;100548.27;108164;1251;70678;-68
2023/11/23 03:50:52;;;;;;;18.00;8.90;;;;;;;1.07;41.47;100532.24;108084;1254;71372;-68
2023/11/23 03:53:19;;;;;;;16.00;7.80;;;;;;;1.16;41.17;100535.60;108152;1254;61848;-67
2023/11/23 03:55:47;;;;;;;12.20;6.80;;;;;;;1.17;41.33;100542.17;108114;1251;60270;-67
2023/11/23 03:58:14;;;;;;;11.10;6.70;;;;;;;1.02;41.12;100531.85;108046;1251;74202;-67
2023/11/23 04:00:43;;;;;;;12.30;7.00;;;;;;;1.17;41.33;100528.33;108075;1251;69967;-67
2023/11/23 04:03:10;;;;;;;11.30;6.60;;;;;;;1.21;41.29;100519.37;108070;1251;72737;-67
2023/11/23 04:05:38;;;;;;;11.30;6.90;;;;;;;1.11;41.27;100515.30;108085;1254;60488;-67
2023/11/23 04:08:06;;;;;;;11.20;6.60;;;;;;;1.13;41.15;100516.18;108077;1251;60271;-67
2023/11/23 04:10:33;;;;;;;11.70;6.90;;;;;;;1.13;41.21;100504.80;108089;1251;72601;-67
2023/11/23 04:13:01;;;;;;;12.10;7.00;;;;;;;1.07;41.52;100498.17;108183;1251;68892;-68
2023/11/23 04:15:28;;;;;;;12.60;7.30;;;;;;;1.09;41.55;100498.35;108187;1251;72723;-67
2023/11/23 04:17:56;;;;;;;12.10;6.50;;;;;;;1.16;41.75;100493.91;108055;1251;61838;-67
2023/11/23 04:20:24;;;;;;;11.60;6.40;;;;;;;1.14;42.06;100482.66;108166;1251;60365;-67
2023/11/23 04:22:51;;;;;;;10.90;6.60;;;;;;;1.22;41.52;100491.02;108151;1251;73374;-67
2023/11/23 04:25:19;;;;;;;15.40;7.60;;;;;;;1.25;41.51;100492.59;108140;1251;69228;-68
2023/11/23 04:27:46;;;;;;;10.60;6.20;;;;;;;1.34;41.65;100486.25;108139;1251;71689;-67
2023/11/23 04:30:14;;;;;;;12.40;6.90;;;;;;;1.40;41.71;100483.70;108071;1254;61684;-67
2023/11/23 04:32:41;;;;;;;14.90;6.70;;;;;;;1.37;41.78;100483.67;108119;1251;60275;-67
2023/11/23 04:35:10;;;;;;;8.90;5.70;;;;;;;1.40;41.66;100483.69;108134;1251;72613;-67
2023/11/23 04:37:38;;;;;;;15.80;7.10;;;;;;;1.51;41.69;100482.54;108318;1251;70300;-67
2023/11/23 04:40:06;;;;;;;14.00;6.70;;;;;;;1.33;42.01;100485.38;108041;1255;71452;-68
2023/11/23 04:42:35;;;;;;;13.20;7.20;;;;;;;1.38;42.00;100496.30;108102;1251;61718;-67
2023/11/23 04:45:03;;;;;;;9.20;6.10;;;;;;;1.21;42.41;100498.09;108114;1251;60342;-67
2023/11/23 04:47:30;;;;;;;12.80;7.20;;;;;;;1.18;42.62;100493.41;108058;1251;73931;-67
2023/11/23 04:49:58;;;;;;;12.10;6.50;;;;;;;1.37;41.97;100491.45;108120;1251;70339;-67
2023/11/23 04:52:25;;;;;;;11.60;7.00;;;;;;;1.51;41.90;100494.14;108053;1251;71639;-67
2023/11/23 04:54:53;;;;;;;11.10;6.30;;;;;;;1.50;41.60;100484.96;108053;1251;60711;-68
2023/11/23 04:57:22;;;;;;;11.80;6.90;;;;;;;1.57;42.14;100480.16;108151;1251;60369;-67
2023/11/23 04:59:50;;;;;;;13.00;7.10;;;;;;;1.69;41.85;100477.09;108178;1251;73707;-67
2023/11/23 05:02:19;;;;;;;12.10;7.80;;;;;;;1.72;41.85;100471.05;108063;1253;73064;-67
2023/11/23 05:04:47;;;;;;;16.40;8.00;;;;;;;1.79;42.02;100466.57;108038;1254;72887;-67
2023/11/23 05:07:14;;;;;;;11.50;7.00;;;;;;;1.84;41.88;100465.39;108105;1258;60550;-67
2023/11/23 05:09:42;;;;;;;12.50;6.80;;;;;;;1.85;41.97;100460.89;108128;1254;60300;-67
2023/11/23 05:12:10;;;;;;;14.60;8.20;;;;;;;1.75;41.88;100455.48;108064;1257;73102;-67
2023/11/23 05:14:38;;;;;;;11.40;7.30;;;;;;;1.62;41.68;100445.39;107984;1253;70005;-67
2023/11/23 05:17:06;;;;;;;14.00;8.00;;;;;;;1.63;41.95;100432.93;107973;1254;72684;-67
2023/11/23 05:19:33;;;;;;;15.50;8.50;;;;;;;1.68;42.24;100424.82;108036;1252;60557;-67
2023/11/23 05:22:09;;;;;;;17.90;9.60;;;;;;;1.65;42.14;100415.64;108024;1258;60316;-67
2023/11/23 05:24:37;;;;;;;20.80;10.10;;;;;;;1.77;41.77;100413.42;107999;1253;73872;-67
2023/11/23 05:27:06;;;;;;;23.50;10.40;;;;;;;1.67;41.74;100408.02;108036;1253;68855;-67
2023/11/23 05:29:34;;;;;;;23.00;12.30;;;;;;;1.53;41.77;100403.48;107995;1254;71481;-67
2023/11/23 05:32:01;;;;;;;29.70;13.90;;;;;;;1.63;41.94;100395.89;108021;1254;60385;-68
2023/11/23 05:34:29;;;;;;;29.50;13.30;;;;;;;1.63;42.15;100392.44;108089;1253;60343;-68
2023/11/23 05:36:56;;;;;;;32.10;14.60;;;;;;;1.64;42.32;100387.41;108014;1253;74159;-67
2023/11/23 05:39:23;;;;;;;26.40;12.50;;;;;;;1.75;42.17;100387.45;108008;1253;68343;-67
2023/11/23 05:41:51;;;;;;;29.00;11.50;;;;;;;1.72;42.15;100385.19;108008;1253;72534;-67
2023/11/23 05:44:19;;;;;;;32.10;13.60;;;;;;;1.76;42.14;100383.30;108055;1253;60537;-68
2023/11/23 05:46:47;;;;;;;23.70;11.70;;;;;;;1.68;42.59;100386.57;108043;1253;60069;-67
2023/11/23 05:49:14;;;;;;;27.30;13.30;;;;;;;1.71;42.60;100383.45;107945;1253;72918;-68
2023/11/23 05:51:42;;;;;;;27.80;13.10;;;;;;;1.86;42.60;100376.58;108109;1258;69450;-67
2023/11/23 05:54:09;;;;;;;27.40;13.50;;;;;;;1.86;42.77;100371.55;108059;1254;74648;-67
2023/11/23 05:56:38;;;;;;;26.90;13.90;;;;;;;2.08;42.65;100372.46;108098;1258;60452;-67
2023/11/23 05:59:07;;;;;;;33.00;14.60;;;;;;;2.07;42.70;100368.98;108038;1253;60264;-68
2023/11/23 06:01:34;;;;;;;40.30;16.00;;;;;;;2.05;42.75;100365.52;108102;1251;75965;-67
2023/11/23 06:04:02;;;;;;;38.40;16.80;;;;;;;1.96;43.09;100363.43;108182;1251;68970;-66
2023/11/23 06:06:30;;;;;;;42.90;16.50;;;;;;;2.09;43.02;100357.90;108321;1251;72664;-67
2023/11/23 06:08:57;;;;;;;45.70;20.00;;;;;;;2.15;43.05;100353.06;108186;1257;60449;-67
2023/11/23 06:11:25;;;;;;;51.20;19.90;;;;;;;2.25;42.77;100338.35;108140;1251;60241;-66
2023/11/23 06:13:53;;;;;;;42.20;17.60;;;;;;;2.20;43.16;100327.60;108221;1251;73886;-67
2023/11/23 06:16:21;;;;;;;36.10;15.30;;;;;;;2.31;43.16;100316.86;108180;1251;68385;-67
2023/11/23 06:18:48;;;;;;;32.70;16.70;;;;;;;2.19;43.19;100306.82;108199;1253;71234;-67
2023/11/23 06:21:16;;;;;;;38.60;16.50;;;;;;;2.28;43.34;100300.41;108239;1251;61613;-67
2023/11/23 06:23:44;;;;;;;37.60;17.20;;;;;;;2.15;43.71;100294.52;108126;1251;60373;-67
2023/11/23 06:26:12;;;;;;;29.70;14.70;;;;;;;1.86;44.35;100288.28;108207;1251;73762;-66
2023/11/23 06:28:39;;;;;;;40.90;16.50;;;;;;;1.78;44.78;100281.16;108167;1251;70459;-68
2023/11/23 06:31:07;;;;;;;37.60;15.60;;;;;;;2.15;44.09;100269.92;108132;1251;72958;-66
2023/11/23 06:33:34;;;;;;;34.50;15.80;;;;;;;2.05;44.33;100270.96;108155;1255;60461;-68
2023/11/23 06:36:02;;;;;;;38.80;16.50;;;;;;;2.39;44.00;100281.86;108193;1251;60423;-67
2023/11/23 06:38:30;;;;;;;34.10;14.90;;;;;;;2.44;43.91;100291.90;108353;1251;73982;-67
2023/11/23 06:40:59;;;;;;;40.00;16.70;;;;;;;2.53;43.87;100300.38;108187;1251;68766;-67
2023/11/23 06:43:26;;;;;;;34.00;16.00;;;;;;;2.63;43.94;100305.05;108162;1251;71247;-67
2023/11/23 06:45:55;;;;;;;35.90;15.70;;;;;;;2.58;43.89;100301.59;108117;1251;60712;-67
2023/11/23 06:48:22;;;;;;;29.50;13.80;;;;;;;2.66;44.07;100298.80;108133;1251;60351;-67
2023/11/23 06:50:50;;;;;;;32.50;15.00;;;;;;;2.49;44.01;100300.22;108185;1251;72305;-67
2023/11/23 06:53:18;;;;;;;38.40;17.60;;;;;;;2.76;43.86;100286.12;108165;1251;70413;-67
2023/11/23 06:55:46;;;;;;;38.80;17.20;;;;;;;2.86;43.95;100283.67;108353;1253;72465;-67
2023/11/23 06:58:14;;;;;;;31.10;15.90;;;;;;;2.72;43.87;100276.59;108195;1251;62195;-67
2023/11/23 07:00:43;;;;;;;35.10;16.60;;;;;;;2.81;43.97;100272.25;108160;1254;60407;-67
2023/11/23 07:03:10;;;;;;;33.80;15.60;;;;;;;2.86;43.82;100263.02;108107;1254;73882;-67
2023/11/23 07:05:38;;;;;;;29.10;13.10;;;;;;;2.82;43.71;100256.29;108109;1253;68766;-67
2023/11/23 07:08:05;;;;;;;34.20;14.00;;;;;;;2.75;43.70;100253.70;108179;1253;71730;-67
2023/11/23 07:10:36;;;;;;;31.40;14.80;;;;;;;2.85;43.68;100245.86;108239;1254;60571;-67
2023/11/23 07:13:03;;;;;;;33.70;14.80;;;;;;;2.95;43.69;100233.86;107664;1253;59111;-67
2023/11/23 07:15:31;;;;;;;32.40;14.00;;;;;;;2.93;44.08;100216.88;108160;1253;72087;-67
2023/11/23 07:17:59;;;;;;;31.10;14.00;;;;;;;2.93;43.86;100203.17;108073;1253;69255;-67
2023/11/23 07:20:27;;;;;;;34.60;16.00;;;;;;;3.04;43.68;100194.09;108078;1254;72645;-67
2023/11/23 07:22:55;;;;;;;41.60;18.30;;;;;;;3.02;43.38;100186.48;108081;1253;60811;-67
2023/11/23 07:25:23;;;;;;;31.10;14.90;;;;;;;3.25;42.98;100179.05;107958;1253;60251;-67
2023/11/23 07:27:50;;;;;;;32.30;14.60;;;;;;;3.57;42.79;100172.75;108086;1253;72622;-67
2023/11/23 07:30:18;;;;;;;38.80;15.90;;;;;;;3.76;42.23;100163.57;108105;1253;70338;-67
2023/11/23 07:32:46;;;;;;;44.50;17.20;;;;;;;3.74;42.20;100160.45;108174;1254;72671;-67
2023/11/23 07:35:13;;;;;;;35.50;16.30;;;;;;;3.77;42.27;100159.58;108061;1254;61710;-67
2023/11/23 07:37:41;;;;;;;40.80;17.20;;;;;;;3.63;42.32;100148.40;108075;1253;59204;-67
2023/11/23 07:40:12;;;;;;;35.80;17.40;;;;;;;3.64;42.36;100130.16;108036;1253;72635;-67
2023/11/23 07:42:42;;;;;;;32.20;15.40;;;;;;;3.55;42.20;100117.56;108127;1252;68495;-67
2023/11/23 07:45:10;;;;;;;37.10;17.10;;;;;;;3.29;42.65;100115.68;108070;1252;71776;-67
2023/11/23 07:47:41;;;;;;;40.20;17.70;;;;;;;3.46;42.51;100106.02;108073;1255;60818;-67
2023/11/23 07:50:10;;;;;;;42.70;15.70;;;;;;;3.32;42.63;100093.28;108236;1251;60281;-68
2023/11/23 07:52:38;;;;;;;38.20;18.20;;;;;;;3.30;42.62;100089.48;108248;1251;73937;-67
2023/11/23 07:55:06;;;;;;;28.00;12.40;;;;;;;3.21;42.68;100089.20;108310;1251;69956;-67
2023/11/23 07:57:33;;;;;;;46.60;17.70;;;;;;;2.98;42.96;100083.83;108228;1253;72651;-67
2023/11/23 08:00:04;;;;;;;34.60;15.90;;;;;;;3.23;42.99;100079.13;108184;1251;61776;-67
2023/11/23 08:02:32;;;;;;;31.00;15.40;;;;;;;3.01;43.18;100087.10;108335;1251;60536;-67
2023/11/23 08:04:59;;;;;;;31.60;15.70;;;;;;;3.12;42.92;100089.10;108076;1251;74817;-67
2023/11/23 08:07:27;;;;;;;32.20;15.50;;;;;;;3.47;42.60;100084.13;108093;1251;69843;-67
2023/11/23 08:09:57;;;;;;;27.80;12.20;;;;;;;3.30;42.74;100080.46;108153;1254;72599;-67
2023/11/23 08:12:25;;;;;;;33.50;15.00;;;;;;;3.12;42.70;100072.79;108059;1251;61624;-66
2023/11/23 08:14:53;;;;;;;32.80;14.00;;;;;;;3.09;42.61;100069.17;108090;1256;59171;-67
2023/11/23 08:17:20;;;;;;;30.80;13.00;;;;;;;3.25;42.54;100064.89;108141;1251;72605;-67
2023/11/23 08:19:48;;;;;;;25.40;11.10;;;;;;;3.38;42.46;100071.71;108014;1251;69982;-67
2023/11/23 08:22:19;;;;;;;41.60;14.90;;;;;;;3.43;42.14;100073.58;108078;1252;71401;-67
2023/11/23 08:24:47;;;;;;;25.50;12.20;;;;;;;3.49;42.22;100066.92;108170;1252;63653;-67
2023/11/23 08:27:14;;;;;;;33.20;16.30;;;;;;;3.88;41.79;100047.96;107968;1251;191521;-67
2023/11/23 08:31:33;;;;;;;36.80;16.90;;;;;;;2.63;44.63;100043.92;105007;1289;600818;-67
2023/11/23 08:34:03;;;;;;;33.20;15.90;;;;;;;3.74;42.17;100040.30;107378;1269;59450;-68
2023/11/23 08:36:30;;;;;;;34.70;15.20;;;;;;;3.82;41.89;100039.00;107297;1264;59941;-68
2023/11/23 08:38:58;;;;;;;30.50;16.20;;;;;;;3.92;41.79;100038.88;107264;1264;72176;-67
2023/11/23 08:41:28;;;;;;;30.30;15.90;;;;;;;4.29;41.01;100032.70;107456;1261;68111;-67
2023/11/23 08:43:55;;;;;;;29.90;14.00;;;;;;;4.50;40.91;100025.31;108133;1254;72637;-67
2023/11/23 08:46:23;;;;;;;25.30;12.60;;;;;;;4.41;40.70;100024.38;108132;1255;139135;-67
2023/11/23 08:48:50;;;;;;;30.50;13.50;;;;;;;4.46;40.74;100020.84;108268;1257;59009;-67
2023/11/23 08:51:17;;;;;;;30.90;15.40;;;;;;;4.31;40.80;100020.17;108119;1257;71879;-68
2023/11/23 08:53:46;;;;;;;31.20;13.40;;;;;;;4.26;40.53;100005.80;108135;1251;69215;-67
2023/11/23 08:56:14;;;;;;;35.60;15.50;;;;;;;4.16;41.27;100001.78;108225;1254;71415;-68
2023/11/23 08:58:43;;;;;;;33.20;14.50;;;;;;;4.14;41.31;99990.84;108218;1255;61716;-67
2023/11/23 09:01:11;;;;;;;30.60;13.30;;;;;;;3.88;41.47;99988.22;108195;1251;59948;-67
2023/11/23 09:03:38;;;;;;;28.00;11.80;;;;;;;3.96;41.44;99976.32;108181;1251;73443;-67
2023/11/23 09:06:08;;;;;;;27.90;14.60;;;;;;;3.84;41.66;99964.81;108203;1257;70874;-67
2023/11/23 09:08:35;;;;;;;31.30;13.30;;;;;;;4.01;41.58;99950.53;108116;1254;74937;-67
2023/11/23 09:11:03;;;;;;;27.70;13.70;;;;;;;3.92;41.55;99946.48;108251;1255;60404;-67
2023/11/23 09:13:32;;;;;;;27.40;14.50;;;;;;;3.87;41.50;99934.39;108241;1251;59464;-68
2023/11/23 09:16:00;;;;;;;33.80;16.70;;;;;;;4.15;41.25;99922.19;108344;1256;73059;-67
2023/11/23 09:18:27;;;;;;;32.10;15.60;;;;;;;4.20;41.16;99919.69;108330;1251;70045;-67
2023/11/23 09:20:55;;;;;;;28.20;12.40;;;;;;;4.21;40.90;99911.15;108204;1251;71179;-67
2023/11/23 09:23:27;;;;;;;31.50;15.30;;;;;;;4.15;41.28;99907.07;108245;1254;60551;-67
2023/11/23 09:25:55;;;;;;;31.20;15.00;;;;;;;3.90;41.34;99902.74;108248;1256;60121;-67
2023/11/23 09:28:23;;;;;;;35.40;16.80;;;;;;;3.99;41.31;99904.70;108194;1251;73086;-67
2023/11/23 09:30:51;;;;;;;30.60;14.60;;;;;;;3.94;41.34;99897.83;108256;1256;70420;-67
2023/11/23 09:33:21;;;;;;;35.10;16.40;;;;;;;4.02;41.33;99904.14;108146;1251;74925;-67
2023/11/23 09:35:51;;;;;;;27.40;13.00;;;;;;;4.07;41.34;99901.45;108256;1257;61788;-67
2023/11/23 09:38:19;;;;;;;23.90;11.70;;;;;;;4.01;41.22;99897.89;108309;1252;59948;-68
2023/11/23 09:40:46;;;;;;;26.60;13.80;;;;;;;3.87;41.05;99881.42;108210;1251;73123;-67
2023/11/23 09:43:15;;;;;;;30.90;14.00;;;;;;;4.12;41.18;99860.73;108189;1256;68738;-68
2023/11/23 09:45:43;;;;;;;28.90;14.70;;;;;;;4.20;41.01;99846.34;108255;1254;72976;-68
2023/11/23 09:48:10;;;;;;;25.90;13.20;;;;;;;4.40;40.61;99830.06;108152;1251;61748;-67
2023/11/23 09:50:39;;;;;;;30.70;13.90;;;;;;;4.32;40.53;99816.97;108090;1260;62205;-67
2023/11/23 09:53:09;;;;;;;;;;;;;;;4.01;41.01;99791.23;108243;1251;74638;-67
2023/11/23 09:55:36;;;;;;;32.20;14.50;;;;;;;4.02;40.93;99753.88;108353;1251;70382;-67
2023/11/23 09:58:04;;;;;;;29.30;15.80;;;;;;;3.87;41.25;99745.77;108322;1251;72658;-68
2023/11/23 10:00:35;;;;;;;32.80;13.10;;;;;;;3.96;41.30;99735.55;108196;1254;61782;-67
2023/11/23 10:03:07;;;;;;;33.20;15.50;;;;;;;3.85;41.93;99716.98;108233;1257;60117;-67
2023/11/23 10:05:37;;;;;;;28.00;12.90;;;;;;;3.80;41.89;99703.52;108334;1251;71755;-67
2023/11/23 10:08:05;;;;;;;19.30;10.30;;;;;;;3.61;41.85;99702.25;108151;1254;68779;-68
2023/11/23 10:10:32;;;;;;;21.20;10.30;;;;;;;3.41;42.34;99699.44;108356;1251;71450;-67
2023/11/23 10:12:59;;;;;;;25.70;10.90;;;;;;;3.25;42.37;99699.31;108281;1256;60656;-68
2023/11/23 10:15:27;;;;;;;33.70;14.40;;;;;;;3.46;42.40;99684.77;108328;1251;61066;-67
2023/11/23 10:17:55;;;;;;;25.10;11.40;;;;;;;3.36;42.48;99674.86;108296;1251;71832;-67
2023/11/23 10:20:22;;;;;;;16.20;8.70;;;;;;;3.56;42.37;99663.44;108263;1251;70533;-68
2023/11/23 10:22:50;;;;;;;21.00;11.20;;;;;;;3.49;42.23;99661.98;107979;1251;72973;-67
2023/11/23 10:25:25;;;;;;;22.40;11.30;;;;;;;3.56;42.11;99656.16;108241;1251;60617;-67
2023/11/23 10:27:56;;;;;;;21.70;10.60;;;;;;;3.69;42.14;99656.64;108239;1251;60288;-67
2023/11/23 10:30:24;;;;;;;21.50;10.00;;;;;;;3.49;42.40;99657.65;108117;1254;73089;-66
2023/11/23 10:32:53;;;;;;;16.70;7.90;;;;;;;3.54;42.24;99645.41;108059;1259;70624;-68
2023/11/23 10:35:23;;;;;;;14.30;7.80;;;;;;;3.49;42.54;99624.85;108226;1254;72802;-68
2023/11/23 10:37:54;;;;;;;21.20;11.40;;;;;;;3.40;42.84;99608.52;108183;1256;62673;-68
2023/11/23 10:40:24;;;;;;;26.90;11.00;;;;;;;3.38;42.70;99607.52;108106;1251;60125;-68
2023/11/23 10:42:52;;;;;;;20.90;10.10;;;;;;;3.39;42.50;99611.13;108174;1254;72288;-68
2023/11/23 10:45:20;;;;;;;19.10;10.10;;;;;;;3.28;42.13;99593.26;108267;1254;69256;-68
2023/11/23 10:47:50;;;;;;;21.50;10.40;;;;;;;3.24;42.34;99577.88;108092;1254;72759;-66
2023/11/23 10:50:19;;;;;;;20.80;10.60;;;;;;;3.10;43.19;99568.22;108268;1252;63783;-67
2023/11/23 10:52:47;;;;;;;17.10;10.10;;;;;;;3.37;42.25;99568.29;108392;1252;59906;-68
2023/11/23 10:55:15;;;;;;;20.20;10.70;;;;;;;3.57;42.11;99562.58;108389;1251;72695;-67
2023/11/23 10:57:45;;;;;;;15.80;7.80;;;;;;;3.51;41.54;99550.89;108329;1251;72655;-68
2023/11/23 11:00:20;;;;;;;18.60;8.40;;;;;;;3.39;41.64;99558.71;108190;1254;74835;-68
2023/11/23 11:02:49;;;;;;;27.80;10.80;;;;;;;3.20;42.09;99562.69;108153;1251;61472;-67
2023/11/23 11:05:28;;;;;;;19.10;10.30;;;;;;;3.16;42.37;99556.17;108139;1251;60276;-67
2023/11/23 11:08:05;;;;;;;15.10;7.50;;;;;;;2.97;42.16;99532.17;108221;1251;75237;-67
2023/11/23 11:10:44;;;;;;;19.00;10.30;;;;;;;2.81;42.39;99524.45;108207;1251;72757;-67
2023/11/23 11:13:13;;;;;;;21.20;9.10;;;;;;;3.00;42.33;99504.39;108207;1251;74911;-67
2023/11/23 11:15:55;;;;;;;21.60;9.30;;;;;;;3.55;41.77;99499.27;108403;1251;60708;-68
2023/11/23 11:18:24;;;;;;;15.50;7.70;;;;;;;3.17;42.12;99489.70;108405;1251;59580;-67
2023/11/23 11:21:08;;;;;;;14.50;7.90;;;;;;;2.96;42.58;99472.36;108249;1251;72596;-67
2023/11/23 11:23:46;;;;;;;17.90;8.40;;;;;;;3.05;43.04;99453.13;108212;1251;71418;-67